Latest Weather Observations for Cape Byron

IDN60801

Issued at 10:03 pm EST Thursday 2 July 2015 (issued every 30 minutes, with the page automatically refreshed every 10 minutes)

About weather observations | Map of weather stations | Latest weather observations for NSW | Other Formats
Station Details ID: 058216 Name: CAPE BYRON AWS Lat: -28.64 Lon: 153.64 Height: 95.0 m
Data from the previous 72 hours. | See also: Recent months at Cape Byron
Date/Time
EST
Temp
°C
App
Temp
°C
Dew
Point
Rel
Hum
%
Delta-T
°C
Wind Press
QNH
hPa
Press
MSL
hPa
Rain
since 9 am
mm
Dir
 
Spd
km/h
Gust
km/h
Spd
kts
Gust
kts
02/10:00pm 12.7 4.7 0.1 42 5.2 WSW 32 48 17 26 1019.6 1019.5 0.0
02/09:30pm 13.1 5.2 1.1 44 5.1 W 32 43 17 23 1019.2 1019.1 0.0
02/09:00pm 13.5 6.9 2.1 46 5.0 W 26 37 14 20 1018.8 1018.7 0.0
02/08:30pm 13.7 7.4 3.5 50 4.6 WNW 26 33 14 18 1018.3 1018.2 0.0
02/08:00pm 13.9 7.7 4.2 52 4.5 WNW 26 35 14 19 1018.3 1018.2 0.0
02/07:30pm 14.6 8.3 4.0 49 4.9 WNW 26 33 14 18 1018.2 1018.1 0.0
02/07:00pm 15.3 10.0 4.9 50 4.9 WNW 22 30 12 16 1017.7 1017.6 0.0
02/06:30pm 15.8 10.9 5.1 49 5.1 WNW 20 24 11 13 1017.7 1017.6 0.0
02/06:00pm 16.1 11.4 6.0 51 4.9 W 20 30 11 16 1017.7 1017.6 0.0
02/05:30pm 16.1 11.4 6.0 51 4.9 W 20 22 11 12 1017.5 1017.4 0.0
02/05:00pm 16.0 12.6 7.7 58 4.2 WNW 15 19 8 10 1017.4 1017.3 0.0
02/04:30pm 16.9 12.3 6.4 50 5.2 W 20 28 11 15 1017.5 1017.4 0.0
02/04:00pm 17.0 13.9 7.4 53 4.8 WNW 13 20 7 11 1017.2 1017.1 0.0
02/03:30pm 18.1 15.7 8.7 54 4.9 WNW 11 17 6 9 1017.0 1016.9 0.0
02/03:00pm 17.9 14.7 8.5 54 4.9 W 15 24 8 13 1017.4 1017.3 0.0
02/02:30pm 18.4 15.2 8.4 52 5.2 WSW 15 20 8 11 1017.6 1017.5 0.0
02/02:00pm 19.8 20.2 12.6 63 4.1 NW 2 9 1 5 1017.5 1017.4 0.0
02/01:30pm 19.5 19.1 12.3 63 4.0 N 6 7 3 4 1017.6 1017.5 0.0
02/01:00pm 19.0 18.3 12.0 64 3.9 N 7 9 4 5 1018.1 1018.0 0.0
02/12:30pm 19.9 19.3 12.4 62 4.2 NNE 7 9 4 5 1018.2 1018.1 0.0
02/12:00pm 18.9 18.2 11.5 62 4.1 NNW 6 11 3 6 1019.0 1018.9 0.0
02/11:30am 18.5 17.4 11.8 65 3.7 W 9 13 5 7 1019.7 1019.6 0.0
02/11:00am 17.8 16.2 11.4 66 3.5 W 11 20 6 11 1020.3 1020.2 0.0
02/10:30am 17.5 16.2 11.1 66 3.5 NW 9 17 5 9 1020.6 1020.5 0.0
02/10:00am 16.3 14.1 10.8 70 2.9 WNW 13 19 7 10 1021.1 1021.0 0.0
02/09:30am 15.6 13.0 10.6 72 2.7 W 15 24 8 13 1021.6 1021.5 0.0
02/09:00am 14.8 11.4 10.6 76 2.2 W 19 26 10 14 1021.4 1021.3 0.0
02/08:30am 14.3 10.6 10.3 77 2.1 W 20 26 11 14 1021.2 1021.1 0.0
02/08:00am 14.1 9.7 10.3 78 2.0 W 24 33 13 18 1021.2 1021.1 0.0
02/07:30am 13.8 9.5 10.6 81 1.7 WSW 24 32 13 17 1021.0 1020.9 0.0
02/07:00am 13.9 8.8 10.7 81 1.7 WSW 28 33 15 18 1020.8 1020.7 0.0
02/06:30am 14.2 9.2 11.0 81 1.7 WSW 28 35 15 19 1020.5 1020.4 0.0
02/06:00am 14.1 9.6 11.4 84 1.4 WSW 26 33 14 18 1020.5 1020.4 0.0
02/05:30am 13.9 10.7 11.8 87 1.1 W 20 28 11 15 1020.2 1020.1 0.0
02/05:00am 14.0 10.8 12.0 88 1.1 W 20 26 11 14 1020.3 1020.2 0.0
02/04:30am 14.2 11.0 11.9 86 1.2 WSW 20 26 11 14 1020.2 1020.1 0.0
02/04:00am 14.7 10.0 12.0 84 1.5 WSW 28 35 15 19 1020.3 1020.2 0.0
02/03:30am 14.8 10.1 11.9 83 1.6 WSW 28 35 15 19 1020.5 1020.4 0.0
02/03:00am 15.0 10.3 12.1 83 1.6 WSW 28 39 15 21 1020.4 1020.3 0.0
02/02:30am 15.3 11.0 12.2 82 1.7 WSW 26 33 14 18 1020.4 1020.3 0.0
02/02:00am 15.3 11.8 12.2 82 1.7 WSW 22 32 12 17 1020.7 1020.6 0.0
02/01:30am 15.7 11.6 11.5 76 2.3 WSW 24 28 13 15 1021.0 1020.9 0.0
02/01:00am 15.2 11.9 12.9 86 1.3 W 22 28 12 15 1021.3 1021.2 0.0
02/12:30am 14.9 12.4 13.6 92 0.7 WNW 19 24 10 13 1021.4 1021.3 0.0
02/12:00am 14.9 11.8 13.4 91 0.8 WNW 22 30 12 16 1021.9 1021.8 0.0
 
Date/Time
EST
Temp
°C
App
Temp
°C
Dew
Point
Rel
Hum
%
Delta-T
°C
Wind Press
QNH
hPa
Press
MSL
hPa
Rain
since 9 am
mm
Dir
 
Spd
km/h
Gust
km/h
Spd
kts
Gust
kts
01/11:30pm 14.8 10.5 13.3 91 0.8 WSW 28 33 15 18 1022.0 1021.9 0.0
01/11:00pm 15.0 11.1 13.2 89 1.0 WSW 26 33 14 18 1022.2 1022.1 0.0
01/10:30pm 17.0 14.6 12.7 76 2.4 SW 17 24 9 13 1022.1 1022.0 0.0
01/10:00pm 17.2 16.0 12.7 75 2.5 WSW 11 13 6 7 1022.2 1022.1 0.0
01/09:30pm 17.1 16.6 12.8 76 2.4 W 7 9 4 5 1022.3 1022.2 0.0
01/09:00pm 17.1 16.6 12.8 76 2.4 SW 7 7 4 4 1022.5 1022.4 0.0
01/08:30pm 17.0 16.3 13.1 78 2.2 SSW 9 11 5 6 1022.5 1022.4 0.0
01/08:00pm 16.8 16.0 12.9 78 2.2 SSW 9 11 5 6 1022.4 1022.3 0.0
01/07:30pm 17.2 15.8 13.5 79 2.1 SSW 13 15 7 8 1022.2 1022.1 0.0
01/07:00pm 16.7 15.2 13.2 80 2.0 SSW 13 15 7 8 1022.0 1021.9 0.0
01/06:30pm 16.8 14.9 13.1 79 2.1 SSW 15 15 8 8 1021.8 1021.7 0.0
01/06:00pm 17.9 15.9 14.0 78 2.2 S 17 20 9 11 1021.6 1021.5 0.0
01/05:30pm 18.2 16.0 13.3 73 2.8 S 17 19 9 10 1021.3 1021.2 0.0
01/05:00pm 18.3 15.8 13.4 73 2.8 SSE 19 24 10 13 1021.2 1021.1 0.0
01/04:30pm 18.4 16.0 13.9 75 2.6 S 19 24 10 13 1021.0 1020.9 0.0
01/04:00pm 18.8 17.3 14.3 75 2.6 SE 15 22 8 12 1021.0 1020.9 0.0
01/03:30pm 19.1 17.2 14.1 73 2.9 SE 17 22 9 12 1021.0 1020.9 0.0
01/03:00pm 19.1 17.1 13.9 72 3.0 SE 17 22 9 12 1021.1 1021.0 0.0
01/02:30pm 19.2 17.6 13.8 71 3.1 SE 15 20 8 11 1021.2 1021.1 0.0
01/02:00pm 19.5 18.3 14.1 71 3.1 SSE 13 19 7 10 1021.4 1021.3 0.0
01/01:30pm 19.9 18.6 13.6 67 3.6 WSW 13 19 7 10 1021.6 1021.5 0.0
01/01:00pm 19.6 18.7 13.8 69 3.3 SSW 11 19 6 10 1021.8 1021.7 0.0
01/12:30pm 19.1 17.7 13.5 70 3.2 SSW 13 15 7 8 1022.3 1022.2 0.0
01/12:00pm 18.9 18.0 13.7 72 3.0 SSW 11 17 6 9 1022.9 1022.8 0.0
01/11:30am 18.5 17.7 14.0 75 2.6 SW 11 19 6 10 1023.4 1023.3 0.0
01/11:00am 17.4 16.0 13.5 78 2.2 WSW 13 19 7 10 1023.9 1023.8 0.0
01/10:30am 16.5 14.3 13.4 82 1.7 WSW 17 22 9 12 1024.2 1024.1 0.0
01/10:00am 15.5 12.6 12.8 84 1.5 W 20 28 11 15 1024.6 1024.5 0.0
01/09:30am 15.2 13.2 12.7 85 1.4 W 15 20 8 11 1024.6 1024.5 0.0
01/09:00am 15.3 12.4 13.0 86 1.3 WSW 20 28 11 15 1024.6 1024.5 0.2
01/08:30am 15.1 11.4 12.6 85 1.4 SW 24 30 13 16 1024.4 1024.3 0.2
01/08:00am 15.2 12.2 12.7 85 1.4 WSW 20 28 11 15 1024.2 1024.1 0.2
01/07:30am 14.7 11.3 12.4 86 1.3 WSW 22 30 12 16 1023.9 1023.8 0.2
01/07:00am 14.4 10.1 12.1 86 1.2 WSW 26 32 14 17 1023.8 1023.7 0.2
01/06:30am 14.6 11.1 12.1 85 1.4 WSW 22 28 12 15 1023.6 1023.5 0.2
01/06:00am 14.7 11.2 12.2 85 1.4 WSW 22 26 12 14 1023.2 1023.1 0.2
01/05:30am 14.6 10.4 12.3 86 1.3 WSW 26 32 14 17 1023.0 1022.9 0.2
01/05:00am 14.8 11.3 12.1 84 1.5 WSW 22 32 12 17 1023.1 1023.0 0.2
01/04:30am 14.9 11.1 12.4 85 1.4 WSW 24 28 13 15 1023.2 1023.1 0.2
01/04:00am 14.9 10.3 12.4 85 1.4 WSW 28 33 15 18 1023.3 1023.2 0.2
01/03:30am 14.9 10.3 12.2 84 1.5 WSW 28 33 15 18 1023.6 1023.5 0.2
01/03:00am 15.1 10.9 12.4 84 1.5 WSW 26 32 14 17 1023.7 1023.6 0.2
01/02:30am 15.6 11.9 12.7 83 1.6 WSW 24 30 13 16 1023.9 1023.8 0.2
01/02:00am 15.3 11.5 12.4 83 1.6 WSW 24 28 13 15 1024.1 1024.0 0.2
01/01:30am 15.9 12.2 12.6 81 1.8 WSW 24 28 13 15 1024.4 1024.3 0.2
01/01:00am 16.1 13.1 12.7 80 1.9 WSW 20 24 11 13 1024.6 1024.5 0.2
01/12:30am 16.2 12.8 12.6 79 2.0 WSW 22 26 12 14 1024.9 1024.8 0.2
01/12:00am 16.3 13.3 12.7 79 2.0 WSW 20 24 11 13 1025.0 1024.9 0.2
 
Date/Time
EST
Temp
°C
App
Temp
°C
Dew
Point
Rel
Hum
%
Delta-T
°C
Wind Press
QNH
hPa
Press
MSL
hPa
Rain
since 9 am
mm
Dir
 
Spd
km/h
Gust
km/h
Spd
kts
Gust
kts
30/11:30pm 16.2 13.2 12.7 80 1.9 WSW 20 26 11 14 1025.2 1025.1 0.2
30/11:00pm 16.2 13.2 12.7 80 1.9 WSW 20 24 11 13 1025.3 1025.2 0.2
30/10:30pm 16.2 13.4 12.6 79 2.0 SW 19 20 10 11 1025.6 1025.5 0.2
30/10:00pm 16.1 14.1 12.7 80 1.9 SW 15 19 8 10 1025.6 1025.5 0.2
30/09:30pm 15.6 13.9 12.5 82 1.7 WSW 13 15 7 8 1025.8 1025.7 0.2
30/09:00pm 16.4 14.5 13.1 81 1.8 SW 15 17 8 9 1025.8 1025.7 0.2
30/08:30pm 16.0 14.1 12.9 82 1.7 SW 15 17 8 9 1025.6 1025.5 0.2
30/08:00pm 16.1 14.2 13.0 82 1.7 SSW 15 20 8 11 1025.5 1025.4 0.2
30/07:30pm 16.0 14.1 12.9 82 1.7 SSW 15 19 8 10 1025.4 1025.3 0.2
30/07:00pm 16.2 14.4 13.3 83 1.6 SSW 15 17 8 9 1025.3 1025.2 0.2
30/06:30pm 16.6 14.6 13.9 84 1.5 SSW 17 20 9 11 1025.1 1025.0 0.2
30/06:00pm 17.1 15.8 13.6 80 2.0 SSW 13 20 7 11 1025.1 1025.0 0.2
30/05:30pm 17.6 15.7 14.1 80 2.0 SSW 17 20 9 11 1025.0 1024.9 0.2
30/05:00pm 17.9 15.2 13.6 76 2.4 S 20 24 11 13 1024.9 1024.8 0.2
30/04:30pm 17.9 15.0 14.0 78 2.2 S 22 26 12 14 1025.0 1024.9 0.2
30/04:00pm 18.1 15.3 14.2 78 2.2 S 22 26 12 14 1024.8 1024.7 0.2
30/03:30pm 18.4 15.9 14.1 76 2.5 S 20 26 11 14 1024.6 1024.5 0.2
30/03:00pm 18.1 15.4 13.6 75 2.6 S 20 26 11 14 1024.8 1024.7 0.2
30/02:30pm 18.5 15.4 14.6 78 2.3 S 24 30 13 16 1024.7 1024.6 0.0
30/02:00pm 18.6 15.8 14.3 76 2.5 S 22 30 12 16 1024.9 1024.8 0.0
30/01:30pm 19.4 17.0 14.4 73 2.9 S 20 26 11 14 1025.1 1025.0 0.0
30/01:00pm 20.1 19.3 14.0 68 3.5 S 11 15 6 8 1025.4 1025.3 0.0
30/12:30pm 19.8 18.8 14.6 72 3.0 WSW 13 19 7 10 1025.9 1025.8 0.0
30/12:00pm 19.0 18.0 14.7 76 2.5 SW 13 19 7 10 1026.3 1026.2 0.0
30/11:30am 18.8 18.2 14.5 76 2.5 SW 11 17 6 9 1027.1 1026.9 0.0
30/11:00am 17.7 15.7 13.8 78 2.2 WSW 17 24 9 13 1027.6 1027.4 0.0
30/10:30am 17.2 14.4 13.3 78 2.2 SW 20 26 11 14 1027.9 1027.7 0.0
30/10:00am 16.5 13.9 13.2 81 1.8 WSW 19 26 10 14 1027.9 1027.7 0.0
30/09:30am 16.1 12.0 12.8 81 1.8 WSW 26 37 14 20 1028.3 1028.1 0.0
30/09:00am 15.8 12.9 12.9 83 1.6 WSW 20 30 11 16 1028.5 1028.4 3.2
30/08:30am 15.2 12.2 12.5 84 1.5 WSW 20 28 11 15 1028.3 1028.1 3.2
30/08:00am 14.5 10.6 12.2 86 1.2 WSW 24 33 13 18 1028.3 1028.1 3.2
30/07:30am 14.1 9.8 12.1 88 1.1 WSW 26 33 14 18 1028.1 1027.9 3.2
30/07:00am 13.8 8.8 12.2 90 0.9 WSW 30 37 16 20 1028.0 1027.8 3.2
30/06:30am 13.6 9.0 12.2 91 0.8 WSW 28 35 15 19 1027.8 1027.6 3.2
30/06:00am 13.5 8.9 12.2 92 0.7 WSW 28 33 15 18 1027.6 1027.4 3.2
30/05:30am 13.5 9.6 12.2 92 0.7 WSW 24 32 13 17 1027.6 1027.4 3.2
30/05:00am 14.3 11.3 12.5 89 1.0 SW 20 26 11 14 1027.5 1027.3 3.2
30/04:30am 15.0 12.6 12.7 86 1.3 SW 17 17 9 9 1027.5 1027.3 3.2
30/04:00am 14.7 12.4 13.1 90 0.9 SW 17 20 9 11 1027.7 1027.5 3.2
30/03:30am 14.4 11.3 13.3 93 0.6 SW 22 26 12 14 1027.8 1027.6 3.2
30/03:00am 14.3 11.1 13.2 93 0.6 WSW 22 28 12 15 1028.1 1027.9 3.2
30/02:30am 14.4 11.6 13.3 93 0.6 SW 20 24 11 13 1028.3 1028.1 3.2
30/02:00am 14.6 11.9 13.5 93 0.6 WSW 20 24 11 13 1028.2 1028.0 3.2
30/01:30am 14.8 12.7 13.7 93 0.6 SW 17 20 9 11 1028.3 1028.1 3.0
30/01:00am 14.9 13.1 13.4 91 0.8 SW 15 20 8 11 1028.5 1028.4 3.0
30/12:30am 14.9 11.4 13.3 90 0.9 WSW 24 30 13 16 1028.5 1028.4 1.6
30/12:00am 15.0 11.8 13.2 89 1.0 SW 22 28 12 15 1028.8 1028.7 1.6
 
Date/Time
EST
Temp
°C
App
Temp
°C
Dew
Point
Rel
Hum
%
Delta-T
°C
Wind Press
QNH
hPa
Press
MSL
hPa
Rain
since 9 am
mm
Dir
 
Spd
km/h
Gust
km/h
Spd
kts
Gust
kts
29/11:30pm 15.3 13.0 13.0 86 1.3 SW 17 20 9 11 1029.1 1029.0 1.6
29/11:00pm 15.3 12.5 13.3 88 1.1 SW 20 24 11 13 1029.6 1029.5 1.6
29/10:30pm 15.3 12.6 13.5 89 1.0 WSW 20 26 11 14 1029.8 1029.7 1.6

Other Formats:

Comma delimited format used in spreadsheet applications
http://www.bom.gov.au/fwo/IDN60801/IDN60801.94599.axf

JavaScript Object Notation format (JSON) in row-major order
http://www.bom.gov.au/fwo/IDN60801/IDN60801.94599.json